sensor_id;sensor_type;location;lat;lon;timestamp;P1;durP1;ratioP1;P2;durP2;ratioP2
70832;SDS011;58452;59.418;17.962;2022-12-15T00:01:18;6.10;;;3.10;;
70832;SDS011;58452;59.418;17.962;2022-12-15T00:04:02;8.02;;;3.65;;
70832;SDS011;58452;59.418;17.962;2022-12-15T00:06:46;6.47;;;2.95;;
70832;SDS011;58452;59.418;17.962;2022-12-15T00:09:30;4.50;;;2.92;;
70832;SDS011;58452;59.418;17.962;2022-12-15T00:12:14;5.45;;;2.78;;
70832;SDS011;58452;59.418;17.962;2022-12-15T00:14:58;5.00;;;2.80;;
70832;SDS011;58452;59.418;17.962;2022-12-15T00:17:42;7.20;;;3.35;;
70832;SDS011;58452;59.418;17.962;2022-12-15T00:20:26;4.40;;;2.72;;
70832;SDS011;58452;59.418;17.962;2022-12-15T00:23:10;5.07;;;2.50;;
70832;SDS011;58452;59.418;17.962;2022-12-15T00:25:55;2.45;;;2.13;;
70832;SDS011;58452;59.418;17.962;2022-12-15T00:28:40;3.70;;;1.92;;
70832;SDS011;58452;59.418;17.962;2022-12-15T00:31:24;3.92;;;2.42;;
70832;SDS011;58452;59.418;17.962;2022-12-15T00:34:08;3.33;;;2.17;;
70832;SDS011;58452;59.418;17.962;2022-12-15T00:36:53;3.45;;;2.10;;
70832;SDS011;58452;59.418;17.962;2022-12-15T00:39:37;2.95;;;2.35;;
70832;SDS011;58452;59.418;17.962;2022-12-15T00:42:04;3.85;;;2.20;;
70832;SDS011;58452;59.418;17.962;2022-12-15T00:44:30;2.67;;;1.85;;
70832;SDS011;58452;59.418;17.962;2022-12-15T00:46:55;5.85;;;2.50;;
70832;SDS011;58452;59.418;17.962;2022-12-15T00:49:27;4.78;;;2.33;;
70832;SDS011;58452;59.418;17.962;2022-12-15T00:52:13;3.70;;;1.95;;
70832;SDS011;58452;59.418;17.962;2022-12-15T00:54:58;3.70;;;1.90;;
70832;SDS011;58452;59.418;17.962;2022-12-15T00:57:42;3.00;;;1.70;;
70832;SDS011;58452;59.418;17.962;2022-12-15T01:00:26;3.38;;;1.88;;
70832;SDS011;58452;59.418;17.962;2022-12-15T01:05:54;3.65;;;2.47;;
70832;SDS011;58452;59.418;17.962;2022-12-15T01:08:38;4.80;;;2.50;;
70832;SDS011;58452;59.418;17.962;2022-12-15T01:11:22;8.68;;;2.58;;
70832;SDS011;58452;59.418;17.962;2022-12-15T01:14:06;3.22;;;1.77;;
70832;SDS011;58452;59.418;17.962;2022-12-15T01:16:50;2.95;;;1.90;;
70832;SDS011;58452;59.418;17.962;2022-12-15T01:19:34;4.13;;;2.22;;
70832;SDS011;58452;59.418;17.962;2022-12-15T01:22:18;3.10;;;2.35;;
70832;SDS011;58452;59.418;17.962;2022-12-15T01:24:43;3.67;;;2.55;;
70832;SDS011;58452;59.418;17.962;2022-12-15T01:27:08;5.55;;;2.42;;
70832;SDS011;58452;59.418;17.962;2022-12-15T01:29:34;2.92;;;1.70;;
70832;SDS011;58452;59.418;17.962;2022-12-15T01:31:59;7.70;;;2.92;;
70832;SDS011;58452;59.418;17.962;2022-12-15T01:34:25;5.45;;;2.72;;
70832;SDS011;58452;59.418;17.962;2022-12-15T01:36:50;4.28;;;2.30;;
70832;SDS011;58452;59.418;17.962;2022-12-15T01:39:15;11.65;;;2.50;;
70832;SDS011;58452;59.418;17.962;2022-12-15T01:41:41;10.35;;;2.55;;
70832;SDS011;58452;59.418;17.962;2022-12-15T01:44:14;4.75;;;2.42;;
70832;SDS011;58452;59.418;17.962;2022-12-15T01:46:44;4.07;;;2.58;;
70832;SDS011;58452;59.418;17.962;2022-12-15T01:49:15;4.57;;;2.53;;
70832;SDS011;58452;59.418;17.962;2022-12-15T01:51:46;4.65;;;2.53;;
70832;SDS011;58452;59.418;17.962;2022-12-15T01:56:54;3.72;;;2.10;;
70832;SDS011;58452;59.418;17.962;2022-12-15T01:59:30;3.22;;;1.90;;
70832;SDS011;58452;59.418;17.962;2022-12-15T02:02:00;3.65;;;2.78;;
70832;SDS011;58452;59.418;17.962;2022-12-15T02:04:26;6.35;;;2.38;;
70832;SDS011;58452;59.418;17.962;2022-12-15T02:06:52;3.83;;;2.50;;
70832;SDS011;58452;59.418;17.962;2022-12-15T02:09:18;2.47;;;2.28;;
70832;SDS011;58452;59.418;17.962;2022-12-15T02:11:49;4.20;;;2.47;;
70832;SDS011;58452;59.418;17.962;2022-12-15T02:31:02;3.85;;;1.90;;
70832;SDS011;58452;59.418;17.962;2022-12-15T02:33:53;4.30;;;2.22;;
70832;SDS011;58452;59.418;17.962;2022-12-15T02:36:46;2.45;;;2.00;;
70832;SDS011;58452;59.418;17.962;2022-12-15T02:39:13;3.97;;;2.13;;
70832;SDS011;58452;59.418;17.962;2022-12-15T02:41:40;4.38;;;2.65;;
70832;SDS011;58452;59.418;17.962;2022-12-15T03:01:07;4.53;;;1.67;;
70832;SDS011;58452;59.418;17.962;2022-12-15T03:03:42;5.93;;;2.35;;
70832;SDS011;58452;59.418;17.962;2022-12-15T03:06:09;5.75;;;2.13;;
70832;SDS011;58452;59.418;17.962;2022-12-15T03:08:35;3.20;;;2.35;;
70832;SDS011;58452;59.418;17.962;2022-12-15T03:11:00;12.02;;;5.35;;
70832;SDS011;58452;59.418;17.962;2022-12-15T03:13:26;3.22;;;1.95;;
70832;SDS011;58452;59.418;17.962;2022-12-15T03:15:52;6.60;;;2.30;;
70832;SDS011;58452;59.418;17.962;2022-12-15T03:18:18;4.13;;;2.45;;
70832;SDS011;58452;59.418;17.962;2022-12-15T03:20:44;5.07;;;2.25;;
70832;SDS011;58452;59.418;17.962;2022-12-15T03:23:10;9.05;;;2.83;;
70832;SDS011;58452;59.418;17.962;2022-12-15T03:25:35;3.85;;;2.20;;
70832;SDS011;58452;59.418;17.962;2022-12-15T03:28:00;3.72;;;2.42;;
70832;SDS011;58452;59.418;17.962;2022-12-15T03:30:26;4.93;;;3.45;;
70832;SDS011;58452;59.418;17.962;2022-12-15T03:32:51;3.60;;;2.47;;
70832;SDS011;58452;59.418;17.962;2022-12-15T03:35:17;3.97;;;3.50;;
70832;SDS011;58452;59.418;17.962;2022-12-15T03:37:42;8.95;;;3.83;;
70832;SDS011;58452;59.418;17.962;2022-12-15T03:40:08;6.38;;;2.45;;
70832;SDS011;58452;59.418;17.962;2022-12-15T03:42:34;6.40;;;2.25;;
70832;SDS011;58452;59.418;17.962;2022-12-15T03:45:12;5.07;;;2.03;;
70832;SDS011;58452;59.418;17.962;2022-12-15T03:47:41;4.05;;;2.40;;
70832;SDS011;58452;59.418;17.962;2022-12-15T03:50:08;6.30;;;2.53;;
70832;SDS011;58452;59.418;17.962;2022-12-15T03:52:34;2.60;;;2.08;;
70832;SDS011;58452;59.418;17.962;2022-12-15T03:55:00;5.68;;;2.63;;
70832;SDS011;58452;59.418;17.962;2022-12-15T03:57:26;4.93;;;2.13;;
70832;SDS011;58452;59.418;17.962;2022-12-15T03:59:51;3.67;;;2.03;;
70832;SDS011;58452;59.418;17.962;2022-12-15T04:02:17;5.28;;;2.30;;
70832;SDS011;58452;59.418;17.962;2022-12-15T04:04:42;3.88;;;2.13;;
70832;SDS011;58452;59.418;17.962;2022-12-15T04:07:07;3.40;;;2.35;;
70832;SDS011;58452;59.418;17.962;2022-12-15T04:09:33;6.40;;;2.28;;
70832;SDS011;58452;59.418;17.962;2022-12-15T04:11:59;4.05;;;2.17;;
70832;SDS011;58452;59.418;17.962;2022-12-15T04:14:27;5.55;;;2.13;;
70832;SDS011;58452;59.418;17.962;2022-12-15T04:16:54;9.32;;;2.17;;
70832;SDS011;58452;59.418;17.962;2022-12-15T04:19:19;3.05;;;2.42;;
70832;SDS011;58452;59.418;17.962;2022-12-15T04:22:03;3.30;;;2.05;;
70832;SDS011;58452;59.418;17.962;2022-12-15T04:24:29;5.75;;;3.10;;
70832;SDS011;58452;59.418;17.962;2022-12-15T04:27:13;3.65;;;2.80;;
70832;SDS011;58452;59.418;17.962;2022-12-15T04:29:57;3.42;;;2.42;;
70832;SDS011;58452;59.418;17.962;2022-12-15T04:32:40;3.70;;;2.22;;
70832;SDS011;58452;59.418;17.962;2022-12-15T04:35:24;2.83;;;2.22;;
70832;SDS011;58452;59.418;17.962;2022-12-15T04:38:08;5.45;;;2.38;;
70832;SDS011;58452;59.418;17.962;2022-12-15T04:40:52;4.25;;;2.47;;
70832;SDS011;58452;59.418;17.962;2022-12-15T04:43:36;3.95;;;2.50;;
70832;SDS011;58452;59.418;17.962;2022-12-15T04:46:20;6.88;;;2.25;;
70832;SDS011;58452;59.418;17.962;2022-12-15T04:49:04;2.88;;;1.90;;
70832;SDS011;58452;59.418;17.962;2022-12-15T04:51:48;2.75;;;2.13;;
70832;SDS011;58452;59.418;17.962;2022-12-15T04:54:32;6.10;;;2.60;;
70832;SDS011;58452;59.418;17.962;2022-12-15T04:57:16;3.20;;;2.83;;
70832;SDS011;58452;59.418;17.962;2022-12-15T05:00:00;3.75;;;2.47;;
70832;SDS011;58452;59.418;17.962;2022-12-15T05:02:44;3.97;;;2.13;;
70832;SDS011;58452;59.418;17.962;2022-12-15T05:05:28;4.00;;;2.33;;
70832;SDS011;58452;59.418;17.962;2022-12-15T05:08:12;6.35;;;2.35;;
70832;SDS011;58452;59.418;17.962;2022-12-15T05:10:57;3.22;;;2.22;;
70832;SDS011;58452;59.418;17.962;2022-12-15T05:13:42;6.03;;;2.90;;
70832;SDS011;58452;59.418;17.962;2022-12-15T05:16:26;4.22;;;1.90;;
70832;SDS011;58452;59.418;17.962;2022-12-15T05:19:10;2.70;;;1.95;;
70832;SDS011;58452;59.418;17.962;2022-12-15T05:21:54;5.05;;;2.47;;
70832;SDS011;58452;59.418;17.962;2022-12-15T05:24:38;6.05;;;2.92;;
70832;SDS011;58452;59.418;17.962;2022-12-15T05:27:22;8.57;;;1.77;;
70832;SDS011;58452;59.418;17.962;2022-12-15T05:30:06;6.68;;;2.30;;
70832;SDS011;58452;59.418;17.962;2022-12-15T05:32:51;4.13;;;2.10;;
70832;SDS011;58452;59.418;17.962;2022-12-15T05:35:16;4.85;;;2.67;;
70832;SDS011;58452;59.418;17.962;2022-12-15T05:37:42;3.30;;;2.05;;
70832;SDS011;58452;59.418;17.962;2022-12-15T05:40:07;3.05;;;2.67;;
70832;SDS011;58452;59.418;17.962;2022-12-15T05:42:33;5.22;;;2.78;;
70832;SDS011;58452;59.418;17.962;2022-12-15T05:44:59;4.68;;;2.53;;
70832;SDS011;58452;59.418;17.962;2022-12-15T05:47:24;3.65;;;2.35;;
70832;SDS011;58452;59.418;17.962;2022-12-15T05:49:50;5.85;;;2.35;;
70832;SDS011;58452;59.418;17.962;2022-12-15T05:52:16;2.92;;;2.22;;
70832;SDS011;58452;59.418;17.962;2022-12-15T05:54:41;4.50;;;2.63;;
70832;SDS011;58452;59.418;17.962;2022-12-15T05:57:07;3.97;;;2.10;;
70832;SDS011;58452;59.418;17.962;2022-12-15T05:59:33;4.18;;;2.63;;
70832;SDS011;58452;59.418;17.962;2022-12-15T06:01:58;8.82;;;2.97;;
70832;SDS011;58452;59.418;17.962;2022-12-15T06:04:24;5.00;;;2.40;;
70832;SDS011;58452;59.418;17.962;2022-12-15T06:06:49;5.93;;;4.00;;
70832;SDS011;58452;59.418;17.962;2022-12-15T06:09:15;3.60;;;2.65;;
70832;SDS011;58452;59.418;17.962;2022-12-15T06:11:40;6.60;;;3.00;;
70832;SDS011;58452;59.418;17.962;2022-12-15T06:14:07;6.93;;;3.38;;
70832;SDS011;58452;59.418;17.962;2022-12-15T06:16:33;8.45;;;3.92;;
70832;SDS011;58452;59.418;17.962;2022-12-15T06:19:00;9.57;;;3.40;;
70832;SDS011;58452;59.418;17.962;2022-12-15T06:21:30;10.25;;;2.88;;
70832;SDS011;58452;59.418;17.962;2022-12-15T06:23:59;5.90;;;3.53;;
70832;SDS011;58452;59.418;17.962;2022-12-15T06:26:29;7.63;;;4.00;;
70832;SDS011;58452;59.418;17.962;2022-12-15T06:28:59;6.20;;;2.90;;
70832;SDS011;58452;59.418;17.962;2022-12-15T06:31:26;3.75;;;2.55;;
70832;SDS011;58452;59.418;17.962;2022-12-15T06:33:53;11.15;;;2.97;;
70832;SDS011;58452;59.418;17.962;2022-12-15T06:36:20;5.93;;;3.35;;
70832;SDS011;58452;59.418;17.962;2022-12-15T06:38:48;5.80;;;3.13;;
70832;SDS011;58452;59.418;17.962;2022-12-15T06:41:15;3.08;;;2.72;;
70832;SDS011;58452;59.418;17.962;2022-12-15T06:43:42;4.18;;;2.67;;
70832;SDS011;58452;59.418;17.962;2022-12-15T06:46:12;7.35;;;3.78;;
70832;SDS011;58452;59.418;17.962;2022-12-15T06:48:38;6.00;;;3.40;;
70832;SDS011;58452;59.418;17.962;2022-12-15T06:51:04;10.05;;;4.00;;
70832;SDS011;58452;59.418;17.962;2022-12-15T06:53:31;4.55;;;3.28;;
70832;SDS011;58452;59.418;17.962;2022-12-15T06:56:00;6.75;;;2.92;;
70832;SDS011;58452;59.418;17.962;2022-12-15T06:58:27;7.38;;;3.03;;
70832;SDS011;58452;59.418;17.962;2022-12-15T07:00:52;8.93;;;3.38;;
70832;SDS011;58452;59.418;17.962;2022-12-15T07:03:18;7.53;;;3.78;;
70832;SDS011;58452;59.418;17.962;2022-12-15T07:05:44;6.25;;;3.55;;
70832;SDS011;58452;59.418;17.962;2022-12-15T07:08:14;7.70;;;5.63;;
70832;SDS011;58452;59.418;17.962;2022-12-15T07:10:43;5.63;;;3.15;;
70832;SDS011;58452;59.418;17.962;2022-12-15T07:13:09;5.40;;;2.90;;
70832;SDS011;58452;59.418;17.962;2022-12-15T07:15:36;8.68;;;3.15;;
70832;SDS011;58452;59.418;17.962;2022-12-15T07:18:02;4.65;;;2.72;;
70832;SDS011;58452;59.418;17.962;2022-12-15T07:20:28;6.28;;;3.15;;
70832;SDS011;58452;59.418;17.962;2022-12-15T07:22:54;3.58;;;3.03;;
70832;SDS011;58452;59.418;17.962;2022-12-15T07:25:19;8.27;;;3.05;;
70832;SDS011;58452;59.418;17.962;2022-12-15T07:27:45;4.90;;;2.53;;
70832;SDS011;58452;59.418;17.962;2022-12-15T07:30:12;4.30;;;2.85;;
70832;SDS011;58452;59.418;17.962;2022-12-15T07:32:39;4.47;;;3.20;;
70832;SDS011;58452;59.418;17.962;2022-12-15T07:35:05;6.32;;;3.70;;
70832;SDS011;58452;59.418;17.962;2022-12-15T07:37:32;9.55;;;3.88;;
70832;SDS011;58452;59.418;17.962;2022-12-15T07:39:58;5.75;;;2.85;;
70832;SDS011;58452;59.418;17.962;2022-12-15T07:42:24;7.28;;;4.18;;
70832;SDS011;58452;59.418;17.962;2022-12-15T07:44:52;8.43;;;4.50;;
70832;SDS011;58452;59.418;17.962;2022-12-15T07:47:18;9.02;;;4.10;;
70832;SDS011;58452;59.418;17.962;2022-12-15T07:49:43;9.55;;;4.45;;
70832;SDS011;58452;59.418;17.962;2022-12-15T07:52:08;9.70;;;4.40;;
70832;SDS011;58452;59.418;17.962;2022-12-15T07:54:34;6.55;;;4.13;;
70832;SDS011;58452;59.418;17.962;2022-12-15T07:57:00;10.52;;;4.97;;
70832;SDS011;58452;59.418;17.962;2022-12-15T07:59:26;8.82;;;4.80;;
70832;SDS011;58452;59.418;17.962;2022-12-15T08:01:52;8.75;;;4.53;;
70832;SDS011;58452;59.418;17.962;2022-12-15T08:04:17;11.98;;;5.53;;
70832;SDS011;58452;59.418;17.962;2022-12-15T08:06:43;14.05;;;6.63;;
70832;SDS011;58452;59.418;17.962;2022-12-15T08:09:09;17.25;;;7.90;;
70832;SDS011;58452;59.418;17.962;2022-12-15T08:11:34;13.63;;;6.50;;
70832;SDS011;58452;59.418;17.962;2022-12-15T08:14:00;12.40;;;5.28;;
70832;SDS011;58452;59.418;17.962;2022-12-15T08:16:25;17.35;;;5.65;;
70832;SDS011;58452;59.418;17.962;2022-12-15T08:18:52;12.60;;;5.80;;
70832;SDS011;58452;59.418;17.962;2022-12-15T08:21:17;14.50;;;5.45;;
70832;SDS011;58452;59.418;17.962;2022-12-15T08:23:43;13.85;;;5.32;;
70832;SDS011;58452;59.418;17.962;2022-12-15T08:26:10;12.48;;;7.30;;
70832;SDS011;58452;59.418;17.962;2022-12-15T08:28:42;15.15;;;5.45;;
70832;SDS011;58452;59.418;17.962;2022-12-15T08:31:09;8.00;;;4.80;;
70832;SDS011;58452;59.418;17.962;2022-12-15T08:33:36;13.20;;;5.55;;
70832;SDS011;58452;59.418;17.962;2022-12-15T08:36:03;10.63;;;5.10;;
70832;SDS011;58452;59.418;17.962;2022-12-15T08:38:31;8.68;;;5.63;;
70832;SDS011;58452;59.418;17.962;2022-12-15T08:40:59;10.13;;;6.90;;
70832;SDS011;58452;59.418;17.962;2022-12-15T08:43:31;16.00;;;7.72;;
70832;SDS011;58452;59.418;17.962;2022-12-15T08:45:58;15.80;;;6.85;;
70832;SDS011;58452;59.418;17.962;2022-12-15T08:48:24;16.98;;;9.13;;
70832;SDS011;58452;59.418;17.962;2022-12-15T08:50:49;16.80;;;7.57;;
70832;SDS011;58452;59.418;17.962;2022-12-15T08:53:15;12.15;;;7.60;;
70832;SDS011;58452;59.418;17.962;2022-12-15T08:55:40;13.65;;;8.55;;
70832;SDS011;58452;59.418;17.962;2022-12-15T08:58:05;22.35;;;9.00;;
70832;SDS011;58452;59.418;17.962;2022-12-15T09:00:31;19.88;;;10.65;;
70832;SDS011;58452;59.418;17.962;2022-12-15T09:02:57;18.55;;;10.43;;
70832;SDS011;58452;59.418;17.962;2022-12-15T09:05:24;16.27;;;8.63;;
70832;SDS011;58452;59.418;17.962;2022-12-15T09:07:52;17.75;;;8.45;;
70832;SDS011;58452;59.418;17.962;2022-12-15T09:10:19;17.08;;;8.48;;
70832;SDS011;58452;59.418;17.962;2022-12-15T09:12:45;23.35;;;8.73;;
70832;SDS011;58452;59.418;17.962;2022-12-15T09:15:10;21.02;;;9.30;;
70832;SDS011;58452;59.418;17.962;2022-12-15T09:17:36;12.85;;;8.10;;
70832;SDS011;58452;59.418;17.962;2022-12-15T09:20:02;18.08;;;8.60;;
70832;SDS011;58452;59.418;17.962;2022-12-15T09:22:28;19.30;;;8.60;;
70832;SDS011;58452;59.418;17.962;2022-12-15T09:24:53;16.60;;;7.90;;
70832;SDS011;58452;59.418;17.962;2022-12-15T09:27:19;13.82;;;7.13;;
70832;SDS011;58452;59.418;17.962;2022-12-15T09:29:44;14.80;;;8.75;;
70832;SDS011;58452;59.418;17.962;2022-12-15T09:32:10;16.67;;;8.10;;
70832;SDS011;58452;59.418;17.962;2022-12-15T09:34:38;20.02;;;9.68;;
70832;SDS011;58452;59.418;17.962;2022-12-15T09:37:03;22.50;;;10.48;;
70832;SDS011;58452;59.418;17.962;2022-12-15T09:39:29;15.32;;;8.95;;
70832;SDS011;58452;59.418;17.962;2022-12-15T09:41:57;19.27;;;8.32;;
70832;SDS011;58452;59.418;17.962;2022-12-15T09:44:24;16.77;;;9.30;;
70832;SDS011;58452;59.418;17.962;2022-12-15T09:49:47;22.42;;;9.35;;
70832;SDS011;58452;59.418;17.962;2022-12-15T09:52:32;18.58;;;9.27;;
70832;SDS011;58452;59.418;17.962;2022-12-15T09:55:22;25.60;;;12.35;;
70832;SDS011;58452;59.418;17.962;2022-12-15T09:57:59;24.27;;;11.75;;
70832;SDS011;58452;59.418;17.962;2022-12-15T10:00:42;23.02;;;10.30;;
70832;SDS011;58452;59.418;17.962;2022-12-15T10:08:49;30.75;;;13.25;;
70832;SDS011;58452;59.418;17.962;2022-12-15T10:19:11;21.92;;;11.05;;
70832;SDS011;58452;59.418;17.962;2022-12-15T10:21:40;18.73;;;7.53;;
70832;SDS011;58452;59.418;17.962;2022-12-15T10:24:17;15.82;;;9.48;;
70832;SDS011;58452;59.418;17.962;2022-12-15T10:26:48;18.08;;;9.07;;
70832;SDS011;58452;59.418;17.962;2022-12-15T10:32:08;21.30;;;9.77;;
70832;SDS011;58452;59.418;17.962;2022-12-15T10:34:43;23.92;;;9.80;;
70832;SDS011;58452;59.418;17.962;2022-12-15T10:37:18;22.33;;;11.02;;
70832;SDS011;58452;59.418;17.962;2022-12-15T10:39:45;25.45;;;11.07;;
70832;SDS011;58452;59.418;17.962;2022-12-15T10:44:49;17.90;;;9.15;;
70832;SDS011;58452;59.418;17.962;2022-12-15T10:49:44;25.20;;;11.70;;
70832;SDS011;58452;59.418;17.962;2022-12-15T10:52:20;18.50;;;10.25;;
70832;SDS011;58452;59.418;17.962;2022-12-15T10:54:49;18.52;;;10.95;;
70832;SDS011;58452;59.418;17.962;2022-12-15T10:59:46;27.63;;;11.07;;
70832;SDS011;58452;59.418;17.962;2022-12-15T11:04:54;15.88;;;9.00;;
70832;SDS011;58452;59.418;17.962;2022-12-15T11:07:22;19.17;;;8.57;;
70832;SDS011;58452;59.418;17.962;2022-12-15T11:09:56;14.98;;;7.97;;
70832;SDS011;58452;59.418;17.962;2022-12-15T11:12:24;14.27;;;8.85;;
70832;SDS011;58452;59.418;17.962;2022-12-15T11:17:58;12.80;;;6.85;;
70832;SDS011;58452;59.418;17.962;2022-12-15T11:20:34;12.35;;;5.68;;
70832;SDS011;58452;59.418;17.962;2022-12-15T11:23:04;8.57;;;5.25;;
70832;SDS011;58452;59.418;17.962;2022-12-15T11:25:48;9.93;;;4.82;;
70832;SDS011;58452;59.418;17.962;2022-12-15T11:28:23;8.95;;;4.53;;
70832;SDS011;58452;59.418;17.962;2022-12-15T11:30:59;8.57;;;5.30;;
70832;SDS011;58452;59.418;17.962;2022-12-15T11:33:46;7.50;;;4.30;;
70832;SDS011;58452;59.418;17.962;2022-12-15T11:39:02;8.80;;;4.18;;
70832;SDS011;58452;59.418;17.962;2022-12-15T11:50:18;8.35;;;4.45;;
70832;SDS011;58452;59.418;17.962;2022-12-15T11:53:35;10.63;;;6.13;;
70832;SDS011;58452;59.418;17.962;2022-12-15T12:00:46;5.47;;;3.55;;
70832;SDS011;58452;59.418;17.962;2022-12-15T12:09:04;4.82;;;3.78;;
70832;SDS011;58452;59.418;17.962;2022-12-15T12:11:44;4.95;;;4.45;;
70832;SDS011;58452;59.418;17.962;2022-12-15T12:14:22;4.78;;;4.15;;
70832;SDS011;58452;59.418;17.962;2022-12-15T12:17:05;7.93;;;4.28;;
70832;SDS011;58452;59.418;17.962;2022-12-15T12:19:46;5.85;;;3.90;;
70832;SDS011;58452;59.418;17.962;2022-12-15T12:22:27;7.85;;;5.63;;
70832;SDS011;58452;59.418;17.962;2022-12-15T12:25:00;7.68;;;3.80;;
70832;SDS011;58452;59.418;17.962;2022-12-15T12:30:37;5.15;;;3.05;;
70832;SDS011;58452;59.418;17.962;2022-12-15T12:33:12;6.40;;;3.58;;
70832;SDS011;58452;59.418;17.962;2022-12-15T12:35:51;6.85;;;3.33;;
70832;SDS011;58452;59.418;17.962;2022-12-15T12:38:23;7.07;;;3.90;;
70832;SDS011;58452;59.418;17.962;2022-12-15T12:51:34;5.10;;;3.35;;
70832;SDS011;58452;59.418;17.962;2022-12-15T12:54:22;5.65;;;3.58;;
70832;SDS011;58452;59.418;17.962;2022-12-15T12:57:46;5.75;;;3.58;;
70832;SDS011;58452;59.418;17.962;2022-12-15T13:07:52;5.05;;;3.33;;
70832;SDS011;58452;59.418;17.962;2022-12-15T13:10:29;10.43;;;3.65;;
70832;SDS011;58452;59.418;17.962;2022-12-15T13:12:57;6.53;;;4.13;;
70832;SDS011;58452;59.418;17.962;2022-12-15T13:15:40;7.28;;;3.88;;
70832;SDS011;58452;59.418;17.962;2022-12-15T13:20:42;7.57;;;4.15;;
70832;SDS011;58452;59.418;17.962;2022-12-15T13:23:31;14.60;;;7.82;;
70832;SDS011;58452;59.418;17.962;2022-12-15T13:31:24;9.57;;;4.43;;
70832;SDS011;58452;59.418;17.962;2022-12-15T13:39:02;10.93;;;6.65;;
70832;SDS011;58452;59.418;17.962;2022-12-15T13:44:53;8.30;;;5.18;;
70832;SDS011;58452;59.418;17.962;2022-12-15T13:49:57;6.05;;;3.78;;
70832;SDS011;58452;59.418;17.962;2022-12-15T13:52:52;10.27;;;4.80;;
70832;SDS011;58452;59.418;17.962;2022-12-15T13:55:22;15.13;;;4.93;;
70832;SDS011;58452;59.418;17.962;2022-12-15T13:57:57;7.18;;;4.80;;
70832;SDS011;58452;59.418;17.962;2022-12-15T14:00:30;8.07;;;3.80;;
70832;SDS011;58452;59.418;17.962;2022-12-15T14:03:03;6.60;;;3.97;;
70832;SDS011;58452;59.418;17.962;2022-12-15T14:05:33;5.07;;;3.42;;
70832;SDS011;58452;59.418;17.962;2022-12-15T14:07:59;7.72;;;3.80;;
70832;SDS011;58452;59.418;17.962;2022-12-15T14:16:13;5.78;;;3.55;;
70832;SDS011;58452;59.418;17.962;2022-12-15T14:18:42;7.05;;;3.92;;
70832;SDS011;58452;59.418;17.962;2022-12-15T14:21:18;5.20;;;3.78;;
70832;SDS011;58452;59.418;17.962;2022-12-15T14:23:48;11.50;;;5.28;;
70832;SDS011;58452;59.418;17.962;2022-12-15T14:26:13;10.70;;;5.85;;
70832;SDS011;58452;59.418;17.962;2022-12-15T14:28:44;6.95;;;4.38;;
70832;SDS011;58452;59.418;17.962;2022-12-15T14:31:13;16.13;;;7.75;;
70832;SDS011;58452;59.418;17.962;2022-12-15T14:33:41;12.15;;;5.60;;
70832;SDS011;58452;59.418;17.962;2022-12-15T14:36:10;8.65;;;4.65;;
70832;SDS011;58452;59.418;17.962;2022-12-15T14:39:04;5.15;;;3.40;;
70832;SDS011;58452;59.418;17.962;2022-12-15T14:41:36;9.63;;;4.28;;
70832;SDS011;58452;59.418;17.962;2022-12-15T14:44:10;14.90;;;8.45;;
70832;SDS011;58452;59.418;17.962;2022-12-15T14:46:46;9.93;;;7.13;;
70832;SDS011;58452;59.418;17.962;2022-12-15T14:49:16;8.25;;;4.70;;
70832;SDS011;58452;59.418;17.962;2022-12-15T14:51:49;11.77;;;5.22;;
70832;SDS011;58452;59.418;17.962;2022-12-15T14:54:27;7.50;;;5.32;;
70832;SDS011;58452;59.418;17.962;2022-12-15T14:57:13;6.90;;;4.60;;
70832;SDS011;58452;59.418;17.962;2022-12-15T14:59:39;6.40;;;4.38;;
70832;SDS011;58452;59.418;17.962;2022-12-15T15:02:17;6.40;;;4.45;;
70832;SDS011;58452;59.418;17.962;2022-12-15T15:04:56;8.60;;;4.47;;
70832;SDS011;58452;59.418;17.962;2022-12-15T15:07:23;7.35;;;4.65;;
70832;SDS011;58452;59.418;17.962;2022-12-15T15:09:50;7.72;;;5.43;;
70832;SDS011;58452;59.418;17.962;2022-12-15T15:12:17;8.30;;;4.95;;
70832;SDS011;58452;59.418;17.962;2022-12-15T15:17:21;8.90;;;5.10;;
70832;SDS011;58452;59.418;17.962;2022-12-15T15:19:56;13.38;;;4.95;;
70832;SDS011;58452;59.418;17.962;2022-12-15T15:22:28;5.75;;;4.85;;
70832;SDS011;58452;59.418;17.962;2022-12-15T15:25:18;15.07;;;6.00;;
70832;SDS011;58452;59.418;17.962;2022-12-15T15:27:50;9.48;;;5.43;;
70832;SDS011;58452;59.418;17.962;2022-12-15T15:30:17;17.17;;;6.03;;
70832;SDS011;58452;59.418;17.962;2022-12-15T15:32:57;8.85;;;6.10;;
70832;SDS011;58452;59.418;17.962;2022-12-15T15:35:24;11.93;;;6.53;;
70832;SDS011;58452;59.418;17.962;2022-12-15T15:37:55;14.48;;;6.30;;
70832;SDS011;58452;59.418;17.962;2022-12-15T15:40:28;11.65;;;6.20;;
70832;SDS011;58452;59.418;17.962;2022-12-15T15:42:53;13.15;;;6.80;;
70832;SDS011;58452;59.418;17.962;2022-12-15T15:45:19;14.25;;;6.18;;
70832;SDS011;58452;59.418;17.962;2022-12-15T15:47:45;8.93;;;5.13;;
70832;SDS011;58452;59.418;17.962;2022-12-15T15:50:15;13.93;;;6.90;;
70832;SDS011;58452;59.418;17.962;2022-12-15T15:52:45;11.27;;;7.60;;
70832;SDS011;58452;59.418;17.962;2022-12-15T15:55:14;11.95;;;5.55;;
70832;SDS011;58452;59.418;17.962;2022-12-15T15:57:43;11.20;;;6.18;;
70832;SDS011;58452;59.418;17.962;2022-12-15T16:00:13;13.75;;;5.97;;
70832;SDS011;58452;59.418;17.962;2022-12-15T16:02:43;10.57;;;6.88;;
70832;SDS011;58452;59.418;17.962;2022-12-15T16:05:09;9.80;;;5.32;;
70832;SDS011;58452;59.418;17.962;2022-12-15T16:07:34;10.32;;;5.57;;
70832;SDS011;58452;59.418;17.962;2022-12-15T16:10:00;9.07;;;5.60;;
70832;SDS011;58452;59.418;17.962;2022-12-15T16:12:27;15.45;;;8.55;;
70832;SDS011;58452;59.418;17.962;2022-12-15T16:14:57;12.45;;;7.10;;
70832;SDS011;58452;59.418;17.962;2022-12-15T16:17:22;13.95;;;8.68;;
70832;SDS011;58452;59.418;17.962;2022-12-15T16:19:49;14.65;;;7.90;;
70832;SDS011;58452;59.418;17.962;2022-12-15T16:22:18;14.25;;;6.78;;
70832;SDS011;58452;59.418;17.962;2022-12-15T16:24:45;13.02;;;5.75;;
70832;SDS011;58452;59.418;17.962;2022-12-15T16:27:11;8.90;;;6.30;;
70832;SDS011;58452;59.418;17.962;2022-12-15T16:29:38;11.90;;;5.47;;
70832;SDS011;58452;59.418;17.962;2022-12-15T16:32:04;8.90;;;5.07;;
70832;SDS011;58452;59.418;17.962;2022-12-15T16:34:31;6.30;;;4.70;;
70832;SDS011;58452;59.418;17.962;2022-12-15T16:36:56;6.20;;;4.65;;
70832;SDS011;58452;59.418;17.962;2022-12-15T16:39:26;9.52;;;3.75;;
70832;SDS011;58452;59.418;17.962;2022-12-15T16:41:55;12.15;;;4.97;;
70832;SDS011;58452;59.418;17.962;2022-12-15T16:44:20;12.32;;;5.10;;
70832;SDS011;58452;59.418;17.962;2022-12-15T16:46:46;8.20;;;4.13;;
70832;SDS011;58452;59.418;17.962;2022-12-15T16:49:12;8.15;;;3.38;;
70832;SDS011;58452;59.418;17.962;2022-12-15T16:51:38;8.32;;;4.60;;
70832;SDS011;58452;59.418;17.962;2022-12-15T16:54:06;13.23;;;4.35;;
70832;SDS011;58452;59.418;17.962;2022-12-15T16:56:41;9.20;;;3.60;;
70832;SDS011;58452;59.418;17.962;2022-12-15T16:59:09;8.70;;;4.03;;
70832;SDS011;58452;59.418;17.962;2022-12-15T17:01:40;4.80;;;3.20;;
70832;SDS011;58452;59.418;17.962;2022-12-15T17:04:05;8.93;;;4.93;;
70832;SDS011;58452;59.418;17.962;2022-12-15T17:06:30;7.57;;;4.78;;
70832;SDS011;58452;59.418;17.962;2022-12-15T17:08:56;8.32;;;5.00;;
70832;SDS011;58452;59.418;17.962;2022-12-15T17:11:22;10.02;;;4.35;;
70832;SDS011;58452;59.418;17.962;2022-12-15T17:13:50;10.57;;;4.40;;
70832;SDS011;58452;59.418;17.962;2022-12-15T17:16:17;20.40;;;11.25;;
70832;SDS011;58452;59.418;17.962;2022-12-15T17:18:43;28.05;;;12.98;;